sensor_id;sensor_type;location;lat;lon;timestamp;temperature;humidity
23748;DHT22;12054;53.662;10.126;2022-10-23T00:00:18;14.30;99.90
23748;DHT22;12054;53.662;10.126;2022-10-23T00:02:43;14.30;99.90
23748;DHT22;12054;53.662;10.126;2022-10-23T00:05:09;14.30;99.90
23748;DHT22;12054;53.662;10.126;2022-10-23T00:07:35;14.20;99.90
23748;DHT22;12054;53.662;10.126;2022-10-23T00:10:00;14.20;99.90
23748;DHT22;12054;53.662;10.126;2022-10-23T00:12:26;14.20;99.90
23748;DHT22;12054;53.662;10.126;2022-10-23T00:14:52;14.20;99.90
23748;DHT22;12054;53.662;10.126;2022-10-23T00:17:18;14.20;99.90
23748;DHT22;12054;53.662;10.126;2022-10-23T00:19:43;14.20;99.90
23748;DHT22;12054;53.662;10.126;2022-10-23T00:22:09;14.10;99.90
23748;DHT22;12054;53.662;10.126;2022-10-23T00:24:35;14.10;99.90
23748;DHT22;12054;53.662;10.126;2022-10-23T00:27:01;14.10;99.90
23748;DHT22;12054;53.662;10.126;2022-10-23T00:29:27;14.10;99.90
23748;DHT22;12054;53.662;10.126;2022-10-23T00:31:52;14.10;99.90
23748;DHT22;12054;53.662;10.126;2022-10-23T00:34:18;14.00;99.90
23748;DHT22;12054;53.662;10.126;2022-10-23T00:36:44;14.00;99.90
23748;DHT22;12054;53.662;10.126;2022-10-23T00:39:09;14.00;99.90
23748;DHT22;12054;53.662;10.126;2022-10-23T00:41:35;14.00;99.90
23748;DHT22;12054;53.662;10.126;2022-10-23T00:44:07;13.90;99.90
23748;DHT22;12054;53.662;10.126;2022-10-23T00:46:34;13.90;99.90
23748;DHT22;12054;53.662;10.126;2022-10-23T00:49:00;13.90;99.90
23748;DHT22;12054;53.662;10.126;2022-10-23T00:51:30;13.90;99.90
23748;DHT22;12054;53.662;10.126;2022-10-23T00:53:59;13.90;99.90
23748;DHT22;12054;53.662;10.126;2022-10-23T00:56:25;13.90;99.90
23748;DHT22;12054;53.662;10.126;2022-10-23T00:58:51;13.90;99.90
23748;DHT22;12054;53.662;10.126;2022-10-23T01:01:18;13.80;99.90
23748;DHT22;12054;53.662;10.126;2022-10-23T01:03:44;13.80;99.90
23748;DHT22;12054;53.662;10.126;2022-10-23T01:06:32;13.80;99.90
23748;DHT22;12054;53.662;10.126;2022-10-23T01:09:18;13.80;99.90
23748;DHT22;12054;53.662;10.126;2022-10-23T01:11:54;13.80;99.90
23748;DHT22;12054;53.662;10.126;2022-10-23T01:14:26;13.70;99.90
23748;DHT22;12054;53.662;10.126;2022-10-23T01:17:18;13.70;99.90
23748;DHT22;12054;53.662;10.126;2022-10-23T01:20:06;13.70;99.90
23748;DHT22;12054;53.662;10.126;2022-10-23T01:23:11;13.70;99.90
23748;DHT22;12054;53.662;10.126;2022-10-23T01:26:03;13.70;99.90
23748;DHT22;12054;53.662;10.126;2022-10-23T01:28:52;13.70;99.90
23748;DHT22;12054;53.662;10.126;2022-10-23T01:31:29;13.60;99.90
23748;DHT22;12054;53.662;10.126;2022-10-23T01:34:03;13.60;99.90
23748;DHT22;12054;53.662;10.126;2022-10-23T01:36:31;13.60;99.90
23748;DHT22;12054;53.662;10.126;2022-10-23T01:39:09;13.60;99.90
23748;DHT22;12054;53.662;10.126;2022-10-23T01:41:49;13.50;99.90
23748;DHT22;12054;53.662;10.126;2022-10-23T01:46:56;13.50;99.90
23748;DHT22;12054;53.662;10.126;2022-10-23T01:49:22;13.50;99.90
23748;DHT22;12054;53.662;10.126;2022-10-23T01:51:53;13.50;99.90
23748;DHT22;12054;53.662;10.126;2022-10-23T01:54:24;13.40;99.90
23748;DHT22;12054;53.662;10.126;2022-10-23T01:56:50;13.40;99.90
23748;DHT22;12054;53.662;10.126;2022-10-23T01:59:21;13.40;99.90
23748;DHT22;12054;53.662;10.126;2022-10-23T02:01:50;13.40;99.90
23748;DHT22;12054;53.662;10.126;2022-10-23T02:04:22;13.40;99.90
23748;DHT22;12054;53.662;10.126;2022-10-23T02:06:49;13.40;99.90
23748;DHT22;12054;53.662;10.126;2022-10-23T02:09:15;13.40;99.90
23748;DHT22;12054;53.662;10.126;2022-10-23T02:11:52;13.30;99.90
23748;DHT22;12054;53.662;10.126;2022-10-23T02:15:07;13.30;99.90
23748;DHT22;12054;53.662;10.126;2022-10-23T02:17:09;13.30;99.90
23748;DHT22;12054;53.662;10.126;2022-10-23T02:19:47;13.30;99.90
23748;DHT22;12054;53.662;10.126;2022-10-23T02:24:50;13.20;99.90
23748;DHT22;12054;53.662;10.126;2022-10-23T02:27:24;13.20;99.90
23748;DHT22;12054;53.662;10.126;2022-10-23T02:30:06;13.20;99.90
23748;DHT22;12054;53.662;10.126;2022-10-23T02:32:34;13.20;99.90
23748;DHT22;12054;53.662;10.126;2022-10-23T02:35:01;13.10;99.90
23748;DHT22;12054;53.662;10.126;2022-10-23T02:37:27;13.10;99.90
23748;DHT22;12054;53.662;10.126;2022-10-23T02:39:53;13.10;99.90
23748;DHT22;12054;53.662;10.126;2022-10-23T02:42:29;13.10;99.90
23748;DHT22;12054;53.662;10.126;2022-10-23T02:47:43;13.00;99.90
23748;DHT22;12054;53.662;10.126;2022-10-23T02:55:33;13.00;99.90
23748;DHT22;12054;53.662;10.126;2022-10-23T02:58:26;13.00;99.90
23748;DHT22;12054;53.662;10.126;2022-10-23T03:00:56;13.00;99.90
23748;DHT22;12054;53.662;10.126;2022-10-23T03:03:33;13.00;99.90
23748;DHT22;12054;53.662;10.126;2022-10-23T03:06:00;12.90;99.90
23748;DHT22;12054;53.662;10.126;2022-10-23T03:08:25;12.90;99.90
23748;DHT22;12054;53.662;10.126;2022-10-23T03:10:51;12.90;99.90
23748;DHT22;12054;53.662;10.126;2022-10-23T03:13:16;12.90;99.90
23748;DHT22;12054;53.662;10.126;2022-10-23T03:15:42;12.90;99.90
23748;DHT22;12054;53.662;10.126;2022-10-23T03:18:08;12.90;99.90
23748;DHT22;12054;53.662;10.126;2022-10-23T03:20:33;12.90;99.90
23748;DHT22;12054;53.662;10.126;2022-10-23T03:22:59;12.90;99.90
23748;DHT22;12054;53.662;10.126;2022-10-23T03:25:24;12.90;99.90
23748;DHT22;12054;53.662;10.126;2022-10-23T03:27:50;12.90;99.90
23748;DHT22;12054;53.662;10.126;2022-10-23T03:30:16;12.90;99.90
23748;DHT22;12054;53.662;10.126;2022-10-23T03:32:42;12.80;99.90
23748;DHT22;12054;53.662;10.126;2022-10-23T03:35:07;12.90;99.90
23748;DHT22;12054;53.662;10.126;2022-10-23T03:37:33;12.80;99.90
23748;DHT22;12054;53.662;10.126;2022-10-23T03:39:58;12.80;99.90
23748;DHT22;12054;53.662;10.126;2022-10-23T03:42:24;12.80;99.90
23748;DHT22;12054;53.662;10.126;2022-10-23T03:44:49;12.80;99.90
23748;DHT22;12054;53.662;10.126;2022-10-23T03:47:15;12.80;99.90
23748;DHT22;12054;53.662;10.126;2022-10-23T03:49:40;12.80;99.90
23748;DHT22;12054;53.662;10.126;2022-10-23T03:52:06;12.80;99.90
23748;DHT22;12054;53.662;10.126;2022-10-23T03:54:32;12.80;99.90
23748;DHT22;12054;53.662;10.126;2022-10-23T03:56:59;12.80;99.90
23748;DHT22;12054;53.662;10.126;2022-10-23T03:59:25;12.70;99.90
23748;DHT22;12054;53.662;10.126;2022-10-23T04:01:51;12.70;99.90
23748;DHT22;12054;53.662;10.126;2022-10-23T04:04:16;12.70;99.90
23748;DHT22;12054;53.662;10.126;2022-10-23T04:06:42;12.70;99.90
23748;DHT22;12054;53.662;10.126;2022-10-23T04:09:07;12.70;99.90
23748;DHT22;12054;53.662;10.126;2022-10-23T04:11:33;12.70;99.90
23748;DHT22;12054;53.662;10.126;2022-10-23T04:13:59;12.70;99.90
23748;DHT22;12054;53.662;10.126;2022-10-23T04:16:24;12.60;99.90
23748;DHT22;12054;53.662;10.126;2022-10-23T04:18:50;12.60;99.90
23748;DHT22;12054;53.662;10.126;2022-10-23T04:21:16;12.60;99.90
23748;DHT22;12054;53.662;10.126;2022-10-23T04:23:41;12.60;99.90
23748;DHT22;12054;53.662;10.126;2022-10-23T04:26:07;12.60;99.90
23748;DHT22;12054;53.662;10.126;2022-10-23T04:28:33;12.60;99.90
23748;DHT22;12054;53.662;10.126;2022-10-23T04:30:58;12.60;99.90
23748;DHT22;12054;53.662;10.126;2022-10-23T04:33:24;12.50;99.90
23748;DHT22;12054;53.662;10.126;2022-10-23T04:35:50;12.50;99.90
23748;DHT22;12054;53.662;10.126;2022-10-23T04:38:15;12.50;99.90
23748;DHT22;12054;53.662;10.126;2022-10-23T04:40:41;12.50;99.90
23748;DHT22;12054;53.662;10.126;2022-10-23T04:43:06;12.50;99.90
23748;DHT22;12054;53.662;10.126;2022-10-23T04:45:32;12.50;99.90
23748;DHT22;12054;53.662;10.126;2022-10-23T04:47:57;12.50;99.90
23748;DHT22;12054;53.662;10.126;2022-10-23T04:50:23;12.50;99.90
23748;DHT22;12054;53.662;10.126;2022-10-23T04:52:56;12.50;99.90
23748;DHT22;12054;53.662;10.126;2022-10-23T04:55:22;12.50;99.90
23748;DHT22;12054;53.662;10.126;2022-10-23T04:57:50;12.50;99.90
23748;DHT22;12054;53.662;10.126;2022-10-23T05:00:16;12.50;99.90
23748;DHT22;12054;53.662;10.126;2022-10-23T05:02:42;12.40;99.90
23748;DHT22;12054;53.662;10.126;2022-10-23T05:05:08;12.50;99.90
23748;DHT22;12054;53.662;10.126;2022-10-23T05:07:34;12.50;99.90
23748;DHT22;12054;53.662;10.126;2022-10-23T05:10:00;12.50;99.90
23748;DHT22;12054;53.662;10.126;2022-10-23T05:12:26;12.40;99.90
23748;DHT22;12054;53.662;10.126;2022-10-23T05:14:52;12.50;99.90
23748;DHT22;12054;53.662;10.126;2022-10-23T05:17:34;12.40;99.90
23748;DHT22;12054;53.662;10.126;2022-10-23T05:20:04;12.40;99.90
23748;DHT22;12054;53.662;10.126;2022-10-23T05:22:33;12.40;99.90
23748;DHT22;12054;53.662;10.126;2022-10-23T05:25:00;12.40;99.90
23748;DHT22;12054;53.662;10.126;2022-10-23T05:27:26;12.40;99.90
23748;DHT22;12054;53.662;10.126;2022-10-23T05:29:52;12.30;99.90
23748;DHT22;12054;53.662;10.126;2022-10-23T05:32:18;12.40;99.90
23748;DHT22;12054;53.662;10.126;2022-10-23T05:34:43;12.30;99.90
23748;DHT22;12054;53.662;10.126;2022-10-23T05:37:11;12.30;99.90
23748;DHT22;12054;53.662;10.126;2022-10-23T05:39:37;12.30;99.90
23748;DHT22;12054;53.662;10.126;2022-10-23T05:42:03;12.30;99.90
23748;DHT22;12054;53.662;10.126;2022-10-23T05:44:28;12.30;99.90
23748;DHT22;12054;53.662;10.126;2022-10-23T05:46:54;12.30;99.90
23748;DHT22;12054;53.662;10.126;2022-10-23T05:49:19;12.30;99.90
23748;DHT22;12054;53.662;10.126;2022-10-23T05:51:45;12.30;99.90
23748;DHT22;12054;53.662;10.126;2022-10-23T05:54:11;12.30;99.90
23748;DHT22;12054;53.662;10.126;2022-10-23T05:56:38;12.30;99.90
23748;DHT22;12054;53.662;10.126;2022-10-23T05:59:06;12.20;99.90
23748;DHT22;12054;53.662;10.126;2022-10-23T06:01:32;12.20;99.90
23748;DHT22;12054;53.662;10.126;2022-10-23T06:04:02;12.20;99.90
23748;DHT22;12054;53.662;10.126;2022-10-23T06:06:27;12.20;99.90
23748;DHT22;12054;53.662;10.126;2022-10-23T06:08:54;12.20;99.90
23748;DHT22;12054;53.662;10.126;2022-10-23T06:11:19;12.20;99.90
23748;DHT22;12054;53.662;10.126;2022-10-23T06:13:45;12.10;99.90
23748;DHT22;12054;53.662;10.126;2022-10-23T06:16:17;12.10;99.90
23748;DHT22;12054;53.662;10.126;2022-10-23T06:18:44;12.10;99.90
23748;DHT22;12054;53.662;10.126;2022-10-23T06:21:10;12.10;99.90
23748;DHT22;12054;53.662;10.126;2022-10-23T06:23:37;12.10;99.90
23748;DHT22;12054;53.662;10.126;2022-10-23T06:26:04;12.00;99.90
23748;DHT22;12054;53.662;10.126;2022-10-23T06:28:30;12.00;99.90
23748;DHT22;12054;53.662;10.126;2022-10-23T06:30:55;12.00;99.90
23748;DHT22;12054;53.662;10.126;2022-10-23T06:33:21;12.00;99.90
23748;DHT22;12054;53.662;10.126;2022-10-23T06:35:46;12.00;99.90
23748;DHT22;12054;53.662;10.126;2022-10-23T06:38:12;11.90;99.90
23748;DHT22;12054;53.662;10.126;2022-10-23T06:40:38;11.90;99.90
23748;DHT22;12054;53.662;10.126;2022-10-23T06:43:04;11.90;99.90
23748;DHT22;12054;53.662;10.126;2022-10-23T06:45:32;11.90;99.90
23748;DHT22;12054;53.662;10.126;2022-10-23T06:47:59;11.90;99.90
23748;DHT22;12054;53.662;10.126;2022-10-23T06:50:25;11.80;99.90
23748;DHT22;12054;53.662;10.126;2022-10-23T06:52:51;11.90;99.90
23748;DHT22;12054;53.662;10.126;2022-10-23T06:55:17;11.80;99.90
23748;DHT22;12054;53.662;10.126;2022-10-23T06:57:43;11.90;99.90
23748;DHT22;12054;53.662;10.126;2022-10-23T07:00:09;11.90;99.90
23748;DHT22;12054;53.662;10.126;2022-10-23T07:02:35;11.90;99.90
23748;DHT22;12054;53.662;10.126;2022-10-23T07:05:00;11.80;99.90
23748;DHT22;12054;53.662;10.126;2022-10-23T07:07:29;11.80;99.90
23748;DHT22;12054;53.662;10.126;2022-10-23T07:09:54;11.90;99.90
23748;DHT22;12054;53.662;10.126;2022-10-23T07:12:20;11.90;99.90
23748;DHT22;12054;53.662;10.126;2022-10-23T07:14:46;11.90;99.90
23748;DHT22;12054;53.662;10.126;2022-10-23T07:17:11;11.90;99.90
23748;DHT22;12054;53.662;10.126;2022-10-23T07:19:36;11.90;99.90
23748;DHT22;12054;53.662;10.126;2022-10-23T07:22:02;11.90;99.90
23748;DHT22;12054;53.662;10.126;2022-10-23T07:24:27;11.80;99.90
23748;DHT22;12054;53.662;10.126;2022-10-23T07:26:53;11.90;99.90
23748;DHT22;12054;53.662;10.126;2022-10-23T07:29:19;11.90;99.90
23748;DHT22;12054;53.662;10.126;2022-10-23T07:31:44;11.90;99.90
23748;DHT22;12054;53.662;10.126;2022-10-23T07:34:10;11.90;99.90
23748;DHT22;12054;53.662;10.126;2022-10-23T07:36:36;11.90;99.90
23748;DHT22;12054;53.662;10.126;2022-10-23T07:39:02;11.90;99.90
23748;DHT22;12054;53.662;10.126;2022-10-23T07:41:27;11.90;99.90
23748;DHT22;12054;53.662;10.126;2022-10-23T07:43:53;12.00;99.90
23748;DHT22;12054;53.662;10.126;2022-10-23T07:46:18;12.00;99.90
23748;DHT22;12054;53.662;10.126;2022-10-23T07:48:44;12.00;99.90
23748;DHT22;12054;53.662;10.126;2022-10-23T07:51:14;12.10;99.90
23748;DHT22;12054;53.662;10.126;2022-10-23T07:53:41;12.20;99.90
23748;DHT22;12054;53.662;10.126;2022-10-23T07:56:16;12.30;99.90
23748;DHT22;12054;53.662;10.126;2022-10-23T07:58:42;12.50;99.90
23748;DHT22;12054;53.662;10.126;2022-10-23T08:01:15;12.50;99.90
23748;DHT22;12054;53.662;10.126;2022-10-23T08:03:41;12.60;99.90
23748;DHT22;12054;53.662;10.126;2022-10-23T08:06:07;12.60;99.90
23748;DHT22;12054;53.662;10.126;2022-10-23T08:08:32;12.70;99.90
23748;DHT22;12054;53.662;10.126;2022-10-23T08:10:58;12.80;99.90
23748;DHT22;12054;53.662;10.126;2022-10-23T08:13:23;13.00;99.90
23748;DHT22;12054;53.662;10.126;2022-10-23T08:15:50;13.20;99.90
23748;DHT22;12054;53.662;10.126;2022-10-23T08:18:17;13.30;99.90
23748;DHT22;12054;53.662;10.126;2022-10-23T08:20:44;13.40;99.90
23748;DHT22;12054;53.662;10.126;2022-10-23T08:23:10;13.50;99.90
23748;DHT22;12054;53.662;10.126;2022-10-23T08:25:37;13.60;99.90
23748;DHT22;12054;53.662;10.126;2022-10-23T08:28:03;13.60;99.90
23748;DHT22;12054;53.662;10.126;2022-10-23T08:30:28;13.70;99.90
23748;DHT22;12054;53.662;10.126;2022-10-23T08:32:54;13.80;99.90
23748;DHT22;12054;53.662;10.126;2022-10-23T08:35:19;13.90;99.90
23748;DHT22;12054;53.662;10.126;2022-10-23T08:37:45;14.00;99.90
23748;DHT22;12054;53.662;10.126;2022-10-23T08:40:21;14.00;99.90
23748;DHT22;12054;53.662;10.126;2022-10-23T08:42:52;14.10;99.90
23748;DHT22;12054;53.662;10.126;2022-10-23T08:45:29;14.30;99.90
23748;DHT22;12054;53.662;10.126;2022-10-23T08:47:58;14.30;99.90
23748;DHT22;12054;53.662;10.126;2022-10-23T08:50:37;14.40;99.90
23748;DHT22;12054;53.662;10.126;2022-10-23T08:55:56;14.50;99.90
23748;DHT22;12054;53.662;10.126;2022-10-23T08:58:24;14.60;99.90
23748;DHT22;12054;53.662;10.126;2022-10-23T09:00:53;14.60;99.90
23748;DHT22;12054;53.662;10.126;2022-10-23T09:03:20;14.60;99.90
23748;DHT22;12054;53.662;10.126;2022-10-23T09:11:02;14.80;99.90
23748;DHT22;12054;53.662;10.126;2022-10-23T09:14:17;14.80;99.90
23748;DHT22;12054;53.662;10.126;2022-10-23T09:19:29;14.90;99.90
23748;DHT22;12054;53.662;10.126;2022-10-23T09:21:55;15.00;99.90
23748;DHT22;12054;53.662;10.126;2022-10-23T09:24:24;15.00;99.90
23748;DHT22;12054;53.662;10.126;2022-10-23T09:26:51;15.00;99.90
23748;DHT22;12054;53.662;10.126;2022-10-23T09:29:32;15.00;99.90
23748;DHT22;12054;53.662;10.126;2022-10-23T09:32:04;15.10;99.90
23748;DHT22;12054;53.662;10.126;2022-10-23T09:34:33;15.10;99.90
23748;DHT22;12054;53.662;10.126;2022-10-23T09:37:22;15.10;99.90
23748;DHT22;12054;53.662;10.126;2022-10-23T09:39:48;15.10;99.90
23748;DHT22;12054;53.662;10.126;2022-10-23T09:42:24;15.20;99.90
23748;DHT22;12054;53.662;10.126;2022-10-23T09:44:52;15.10;99.90
23748;DHT22;12054;53.662;10.126;2022-10-23T09:47:20;15.20;99.90
23748;DHT22;12054;53.662;10.126;2022-10-23T09:49:49;15.20;99.90
23748;DHT22;12054;53.662;10.126;2022-10-23T09:54:54;15.30;99.90
23748;DHT22;12054;53.662;10.126;2022-10-23T09:57:28;15.30;99.90
23748;DHT22;12054;53.662;10.126;2022-10-23T09:59:57;15.30;99.90
23748;DHT22;12054;53.662;10.126;2022-10-23T10:02:30;15.30;99.90
23748;DHT22;12054;53.662;10.126;2022-10-23T10:04:57;15.20;99.90
23748;DHT22;12054;53.662;10.126;2022-10-23T10:07:24;15.20;99.90
23748;DHT22;12054;53.662;10.126;2022-10-23T10:09:52;15.20;99.90
23748;DHT22;12054;53.662;10.126;2022-10-23T10:12:34;15.20;99.90
23748;DHT22;12054;53.662;10.126;2022-10-23T10:15:16;15.20;99.90
23748;DHT22;12054;53.662;10.126;2022-10-23T10:23:36;15.30;99.90
23748;DHT22;12054;53.662;10.126;2022-10-23T10:26:40;15.30;99.90
23748;DHT22;12054;53.662;10.126;2022-10-23T10:29:12;15.30;99.90
23748;DHT22;12054;53.662;10.126;2022-10-23T10:31:57;15.40;99.90
23748;DHT22;12054;53.662;10.126;2022-10-23T10:34:48;15.40;99.90
23748;DHT22;12054;53.662;10.126;2022-10-23T10:37:28;15.50;99.90
23748;DHT22;12054;53.662;10.126;2022-10-23T10:45:38;15.50;99.90
23748;DHT22;12054;53.662;10.126;2022-10-23T10:48:22;15.50;99.90
23748;DHT22;12054;53.662;10.126;2022-10-23T10:51:09;15.50;99.90
23748;DHT22;12054;53.662;10.126;2022-10-23T10:56:18;15.60;99.90
23748;DHT22;12054;53.662;10.126;2022-10-23T10:58:53;15.60;99.90
23748;DHT22;12054;53.662;10.126;2022-10-23T11:06:28;15.80;99.90
23748;DHT22;12054;53.662;10.126;2022-10-23T11:08:54;15.80;99.90
23748;DHT22;12054;53.662;10.126;2022-10-23T11:11:32;15.80;99.90
23748;DHT22;12054;53.662;10.126;2022-10-23T11:13:58;15.80;99.90
23748;DHT22;12054;53.662;10.126;2022-10-23T11:16:28;15.80;99.90
23748;DHT22;12054;53.662;10.126;2022-10-23T11:19:22;15.90;99.90
23748;DHT22;12054;53.662;10.126;2022-10-23T11:22:11;15.90;99.90
23748;DHT22;12054;53.662;10.126;2022-10-23T11:38:25;16.10;99.90
23748;DHT22;12054;53.662;10.126;2022-10-23T11:40:58;16.20;99.90
23748;DHT22;12054;53.662;10.126;2022-10-23T11:43:34;16.30;99.90
23748;DHT22;12054;53.662;10.126;2022-10-23T11:46:28;16.30;99.90
23748;DHT22;12054;53.662;10.126;2022-10-23T11:48:55;16.40;99.90
23748;DHT22;12054;53.662;10.126;2022-10-23T11:51:39;16.40;99.90
23748;DHT22;12054;53.662;10.126;2022-10-23T11:57:09;16.50;99.90
23748;DHT22;12054;53.662;10.126;2022-10-23T12:04:48;16.70;99.90
23748;DHT22;12054;53.662;10.126;2022-10-23T12:07:32;16.80;99.90
23748;DHT22;12054;53.662;10.126;2022-10-23T12:12:36;16.80;99.90
23748;DHT22;12054;53.662;10.126;2022-10-23T12:17:41;16.90;99.90
23748;DHT22;12054;53.662;10.126;2022-10-23T12:25:58;17.00;99.90
23748;DHT22;12054;53.662;10.126;2022-10-23T12:37:02;17.30;99.90
23748;DHT22;12054;53.662;10.126;2022-10-23T12:39:34;17.40;99.90
23748;DHT22;12054;53.662;10.126;2022-10-23T12:42:13;17.50;99.90
23748;DHT22;12054;53.662;10.126;2022-10-23T12:44:40;17.40;99.90
23748;DHT22;12054;53.662;10.126;2022-10-23T12:47:10;17.40;99.90
23748;DHT22;12054;53.662;10.126;2022-10-23T12:49:48;17.40;99.90
23748;DHT22;12054;53.662;10.126;2022-10-23T12:52:16;17.40;99.90
23748;DHT22;12054;53.662;10.126;2022-10-23T12:54:42;17.40;99.90
23748;DHT22;12054;53.662;10.126;2022-10-23T12:57:26;17.40;99.90
23748;DHT22;12054;53.662;10.126;2022-10-23T13:00:06;17.40;99.90
23748;DHT22;12054;53.662;10.126;2022-10-23T13:02:32;17.40;99.90
23748;DHT22;12054;53.662;10.126;2022-10-23T13:05:00;17.50;99.90
23748;DHT22;12054;53.662;10.126;2022-10-23T13:07:28;17.50;99.90
23748;DHT22;12054;53.662;10.126;2022-10-23T13:09:56;17.50;99.90
23748;DHT22;12054;53.662;10.126;2022-10-23T13:12:25;17.50;99.90
23748;DHT22;12054;53.662;10.126;2022-10-23T13:17:40;17.50;99.90
23748;DHT22;12054;53.662;10.126;2022-10-23T13:20:25;17.50;99.90
23748;DHT22;12054;53.662;10.126;2022-10-23T13:25:28;17.50;99.90
23748;DHT22;12054;53.662;10.126;2022-10-23T13:30:38;17.50;99.90
23748;DHT22;12054;53.662;10.126;2022-10-23T13:36:18;17.50;99.90
23748;DHT22;12054;53.662;10.126;2022-10-23T13:38:46;17.50;99.90
23748;DHT22;12054;53.662;10.126;2022-10-23T13:41:17;17.50;99.90
23748;DHT22;12054;53.662;10.126;2022-10-23T13:43:44;17.50;99.90
23748;DHT22;12054;53.662;10.126;2022-10-23T13:46:14;17.50;99.90
23748;DHT22;12054;53.662;10.126;2022-10-23T13:48:40;17.50;99.90
23748;DHT22;12054;53.662;10.126;2022-10-23T13:51:14;17.50;99.90
23748;DHT22;12054;53.662;10.126;2022-10-23T13:53:40;17.50;99.90
23748;DHT22;12054;53.662;10.126;2022-10-23T13:56:09;17.50;99.90
23748;DHT22;12054;53.662;10.126;2022-10-23T13:58:34;17.50;99.90
23748;DHT22;12054;53.662;10.126;2022-10-23T14:01:00;17.40;99.90
23748;DHT22;12054;53.662;10.126;2022-10-23T14:03:26;17.40;99.90
23748;DHT22;12054;53.662;10.126;2022-10-23T14:05:52;17.40;99.90
23748;DHT22;12054;53.662;10.126;2022-10-23T14:08:17;17.40;99.90
23748;DHT22;12054;53.662;10.126;2022-10-23T14:10:44;17.40;99.90
23748;DHT22;12054;53.662;10.126;2022-10-23T14:13:09;17.40;99.90
23748;DHT22;12054;53.662;10.126;2022-10-23T14:15:35;17.40;99.90
23748;DHT22;12054;53.662;10.126;2022-10-23T14:18:01;17.40;99.90
23748;DHT22;12054;53.662;10.126;2022-10-23T14:20:27;17.40;99.90
23748;DHT22;12054;53.662;10.126;2022-10-23T14:22:52;17.40;99.90
23748;DHT22;12054;53.662;10.126;2022-10-23T14:25:18;17.30;99.90
23748;DHT22;12054;53.662;10.126;2022-10-23T14:27:44;17.30;99.90
23748;DHT22;12054;53.662;10.126;2022-10-23T14:30:09;17.30;99.90
23748;DHT22;12054;53.662;10.126;2022-10-23T14:32:35;17.30;99.90
23748;DHT22;12054;53.662;10.126;2022-10-23T14:35:02;17.20;99.90
23748;DHT22;12054;53.662;10.126;2022-10-23T14:37:32;17.20;99.90
23748;DHT22;12054;53.662;10.126;2022-10-23T14:39:57;17.20;99.90
23748;DHT22;12054;53.662;10.126;2022-10-23T14:42:23;17.20;99.90
23748;DHT22;12054;53.662;10.126;2022-10-23T14:44:49;17.20;99.90
23748;DHT22;12054;53.662;10.126;2022-10-23T14:47:16;17.20;99.90
23748;DHT22;12054;53.662;10.126;2022-10-23T14:49:45;17.20;99.90
23748;DHT22;12054;53.662;10.126;2022-10-23T14:52:14;17.20;99.90
23748;DHT22;12054;53.662;10.126;2022-10-23T14:54:40;17.20;99.90
23748;DHT22;12054;53.662;10.126;2022-10-23T14:57:06;17.10;99.90
23748;DHT22;12054;53.662;10.126;2022-10-23T14:59:31;17.10;99.90
23748;DHT22;12054;53.662;10.126;2022-10-23T15:01:57;17.10;99.90
23748;DHT22;12054;53.662;10.126;2022-10-23T15:04:23;17.00;99.90
23748;DHT22;12054;53.662;10.126;2022-10-23T15:06:48;17.00;99.90
23748;DHT22;12054;53.662;10.126;2022-10-23T15:09:14;17.00;99.90
23748;DHT22;12054;53.662;10.126;2022-10-23T15:11:40;16.90;99.90
23748;DHT22;12054;53.662;10.126;2022-10-23T15:14:05;16.90;99.90
23748;DHT22;12054;53.662;10.126;2022-10-23T15:16:31;16.80;99.90
23748;DHT22;12054;53.662;10.126;2022-10-23T15:18:57;16.80;99.90
23748;DHT22;12054;53.662;10.126;2022-10-23T15:21:23;16.80;99.90
23748;DHT22;12054;53.662;10.126;2022-10-23T15:23:49;16.80;99.90
23748;DHT22;12054;53.662;10.126;2022-10-23T15:26:19;16.80;99.90
23748;DHT22;12054;53.662;10.126;2022-10-23T15:28:55;16.80;99.90
23748;DHT22;12054;53.662;10.126;2022-10-23T15:34:03;16.70;99.90
23748;DHT22;12054;53.662;10.126;2022-10-23T15:36:29;16.70;99.90
23748;DHT22;12054;53.662;10.126;2022-10-23T15:38:55;16.70;99.90
23748;DHT22;12054;53.662;10.126;2022-10-23T15:41:32;16.70;99.90
23748;DHT22;12054;53.662;10.126;2022-10-23T15:43:59;16.70;99.90
23748;DHT22;12054;53.662;10.126;2022-10-23T15:46:25;16.70;99.90
23748;DHT22;12054;53.662;10.126;2022-10-23T15:48:51;16.60;99.90
23748;DHT22;12054;53.662;10.126;2022-10-23T15:51:16;16.60;99.90
23748;DHT22;12054;53.662;10.126;2022-10-23T15:53:43;16.60;99.90
23748;DHT22;12054;53.662;10.126;2022-10-23T15:56:08;16.50;99.90
23748;DHT22;12054;53.662;10.126;2022-10-23T15:58:34;16.50;99.90
23748;DHT22;12054;53.662;10.126;2022-10-23T16:01:04;16.50;99.90
23748;DHT22;12054;53.662;10.126;2022-10-23T16:03:31;16.50;99.90
23748;DHT22;12054;53.662;10.126;2022-10-23T16:05:57;16.50;99.90
23748;DHT22;12054;53.662;10.126;2022-10-23T16:08:22;16.40;99.90
23748;DHT22;12054;53.662;10.126;2022-10-23T16:10:50;16.40;99.90
23748;DHT22;12054;53.662;10.126;2022-10-23T16:13:16;16.40;99.90
23748;DHT22;12054;53.662;10.126;2022-10-23T16:15:41;16.50;99.90
23748;DHT22;12054;53.662;10.126;2022-10-23T16:18:07;16.40;99.90
23748;DHT22;12054;53.662;10.126;2022-10-23T16:20:33;16.40;99.90
23748;DHT22;12054;53.662;10.126;2022-10-23T16:22:59;16.30;99.90
23748;DHT22;12054;53.662;10.126;2022-10-23T16:25:24;16.30;99.90
23748;DHT22;12054;53.662;10.126;2022-10-23T16:27:51;16.30;99.90
23748;DHT22;12054;53.662;10.126;2022-10-23T16:30:16;16.30;99.90
23748;DHT22;12054;53.662;10.126;2022-10-23T16:32:42;16.30;99.90
23748;DHT22;12054;53.662;10.126;2022-10-23T16:35:08;16.30;99.90
23748;DHT22;12054;53.662;10.126;2022-10-23T16:37:34;16.20;99.90
23748;DHT22;12054;53.662;10.126;2022-10-23T16:39:59;16.30;99.90
23748;DHT22;12054;53.662;10.126;2022-10-23T16:42:26;16.20;99.90
23748;DHT22;12054;53.662;10.126;2022-10-23T16:44:51;16.20;99.90
23748;DHT22;12054;53.662;10.126;2022-10-23T16:47:17;16.20;99.90
23748;DHT22;12054;53.662;10.126;2022-10-23T16:49:43;16.20;99.90
23748;DHT22;12054;53.662;10.126;2022-10-23T16:52:08;16.10;99.90
23748;DHT22;12054;53.662;10.126;2022-10-23T16:54:34;16.10;99.90
23748;DHT22;12054;53.662;10.126;2022-10-23T16:56:59;16.10;99.90
23748;DHT22;12054;53.662;10.126;2022-10-23T16:59:25;16.10;99.90
23748;DHT22;12054;53.662;10.126;2022-10-23T17:01:50;16.10;99.90
23748;DHT22;12054;53.662;10.126;2022-10-23T17:04:17;16.10;99.90
23748;DHT22;12054;53.662;10.126;2022-10-23T17:06:42;16.00;99.90